地図

経路データ

SID SEASON NUMBER BASIN SUBBASIN NAME ISO_TIME NATURE LAT LON WMO_WIND WMO_PRES WMO_AGENCY TRACK_TYPE DIST2LAND LANDFALL IFLAG USA_AGENCY USA_ATCF_ID USA_LAT USA_LON USA_RECORD USA_STATUS USA_WIND USA_PRES USA_SSHS USA_R34_NE USA_R34_SE USA_R34_SW USA_R34_NW USA_R50_NE USA_R50_SE USA_R50_SW USA_R50_NW USA_R64_NE USA_R64_SE USA_R64_SW USA_R64_NW USA_POCI USA_ROCI USA_RMW USA_EYE TOKYO_LAT TOKYO_LON TOKYO_GRADE TOKYO_WIND TOKYO_PRES TOKYO_R50_DIR TOKYO_R50_LONG TOKYO_R50_SHORT TOKYO_R30_DIR TOKYO_R30_LONG TOKYO_R30_SHORT TOKYO_LAND CMA_LAT CMA_LON CMA_CAT CMA_WIND CMA_PRES HKO_LAT HKO_LON HKO_CAT HKO_WIND HKO_PRES NEWDELHI_LAT NEWDELHI_LON NEWDELHI_GRADE NEWDELHI_WIND NEWDELHI_PRES NEWDELHI_CI NEWDELHI_DP NEWDELHI_POCI REUNION_LAT REUNION_LON REUNION_TYPE REUNION_WIND REUNION_PRES REUNION_TNUM REUNION_CI REUNION_RMW REUNION_R34_NE REUNION_R34_SE REUNION_R34_SW REUNION_R34_NW REUNION_R50_NE REUNION_R50_SE REUNION_R50_SW REUNION_R50_NW REUNION_R64_NE REUNION_R64_SE REUNION_R64_SW REUNION_R64_NW BOM_LAT BOM_LON BOM_TYPE BOM_WIND BOM_PRES BOM_TNUM BOM_CI BOM_RMW BOM_R34_NE BOM_R34_SE BOM_R34_SW BOM_R34_NW BOM_R50_NE BOM_R50_SE BOM_R50_SW BOM_R50_NW BOM_R64_NE BOM_R64_SE BOM_R64_SW BOM_R64_NW BOM_ROCI BOM_POCI BOM_EYE BOM_POS_METHOD BOM_PRES_METHOD NADI_LAT NADI_LON NADI_CAT NADI_WIND NADI_PRES WELLINGTON_LAT WELLINGTON_LON WELLINGTON_WIND WELLINGTON_PRES DS824_LAT DS824_LON DS824_STAGE DS824_WIND DS824_PRES TD9636_LAT TD9636_LON TD9636_STAGE TD9636_WIND TD9636_PRES TD9635_LAT TD9635_LON TD9635_WIND TD9635_PRES TD9635_ROCI NEUMANN_LAT NEUMANN_LON NEUMANN_CLASS NEUMANN_WIND NEUMANN_PRES MLC_LAT MLC_LON MLC_CLASS MLC_WIND MLC_PRES USA_GUST BOM_GUST BOM_GUST_PER REUNION_GUST REUNION_GUST_PER USA_SEAHGT USA_SEARAD_NE USA_SEARAD_SE USA_SEARAD_SW USA_SEARAD_NW STORM_SPEED STORM_DIR
1945234N22131 1945 49 WP MM RUTH 1945-08-22 00:00:00 TS 21.7000 131.300 main 1009 1009 O________OOO__ jtwc_wp WP131945 21.7000 131.300 25 -1 21.7000 131.300 TC 25 21.7000 131.300 1 25 21.7000 131.300 25 997 180 12 76
1945234N22131 1945 49 WP MM RUTH 1945-08-22 03:00:00 TS 21.8435 131.907 main 1034 1017 P________PPP__ WP131945 21.8456 131.920 25 -1 21.8456 131.920 TC 25 21.8375 131.867 1 26 21.8456 131.920 25 996 180 11 75
1945234N22131 1945 49 WP MM RUTH 1945-08-22 06:00:00 TS 21.9973 132.482 main 1020 1006 O________OPO__ jtwc_wp WP131945 22.0000 132.500 25 -1 22.0000 132.500 TC 25 21.9892 132.428 1 27 22.0000 132.500 25 995 180 11 72
1945234N22131 1945 49 WP MM RUTH 1945-08-22 09:00:00 TS 22.1757 133.005 main 1008 997 P________PPP__ WP131945 22.1772 133.015 27 -1 22.1772 133.015 TC 27 22.1712 132.974 1 28 22.1772 133.015 27 994 180 10 67
1945234N22131 1945 49 WP MM RUTH 1945-08-22 12:00:00 TS 22.4000 133.500 main 999 982 O________OOO__ jtwc_wp WP131945 22.4000 133.500 30 -1 22.4000 133.500 TC 30 22.4000 133.500 1 30 22.4000 133.500 30 993 180 11 62
1945234N22131 1945 49 WP MM RUTH 1945-08-22 15:00:00 TS 22.6795 134.011 main 982 965 P________PPP__ WP131945 22.6775 134.015 30 -1 22.6775 134.015 TC 30 22.6855 133.999 1 32 22.6775 134.015 30 992 180 11 57
1945234N22131 1945 49 WP MM RUTH 1945-08-22 18:00:00 TS 23.0030 134.492 main 969 950 O________OPO__ jtwc_wp WP131945 23.0000 134.500 30 -1 23.0000 134.500 TC 30 23.0120 134.467 1 35 23.0000 134.500 30 992 180 11 51
1945234N22131 1945 49 WP MM RUTH 1945-08-22 21:00:00 TS 23.3574 134.917 main 944 932 P________PPP__ WP131945 23.3573 134.923 35 0 23.3573 134.923 TC 35 23.3575 134.902 1 37 23.3573 134.923 35 991 180 10 47
1945234N22131 1945 49 WP MM RUTH 1945-08-23 00:00:00 TS 23.7000 135.300 main 932 922 O________OOO__ jtwc_wp WP131945 23.7000 135.300 40 0 23.7000 135.300 TC 40 23.7000 135.300 2 40 23.7000 135.300 40 990 180 9 49
1945234N22131 1945 49 WP MM RUTH 1945-08-23 03:00:00 TS 23.9601 135.671 main 923 915 P________PPP__ WP131945 23.9499 135.665 40 0 23.9499 135.665 TC 40 23.9906 135.686 2 42 23.9499 135.665 40 989 150 8 51
1945234N22131 1945 49 WP MM RUTH 1945-08-23 06:00:00 TS 24.2193 136.008 main 920 907 O________OPO__ jtwc_wp WP131945 24.2000 136.000 40 0 24.2000 136.000 TC 40 24.2771 136.033 2 45 24.2000 136.000 40 988 120 8 46
1945234N22131 1945 49 WP MM RUTH 1945-08-23 09:00:00 TS 24.5394 136.321 main 907 886 P________PPP__ WP131945 24.5274 136.315 45 0 24.5274 136.315 TC 45 24.5751 136.339 2 47 24.5274 136.315 45 986 120 9 38
1945234N22131 1945 49 WP MM RUTH 1945-08-23 12:00:00 TS 24.9000 136.600 main 886 867 O________OOO__ jtwc_wp WP131945 24.9000 136.600 50 0 24.9000 136.600 TC 50 24.9000 136.600 2 50 24.9000 136.600 50 985 120 9 34
1945234N22131 1945 49 WP MM RUTH 1945-08-23 15:00:00 TS 25.2780 136.875 main 867 844 P________PPP__ WP131945 25.2925 136.880 50 0 25.2925 136.880 TC 50 25.2345 136.858 2 50 25.2925 136.880 50 983 120 9 30
1945234N22131 1945 49 WP MM RUTH 1945-08-23 18:00:00 TS 25.6756 137.092 main 844 825 O________OPO__ jtwc_wp WP131945 25.7000 137.100 50 0 25.7000 137.100 TC 50 25.6023 137.069 2 50 25.7000 137.100 50 982 120 8 22
1945234N22131 1945 49 WP MM RUTH 1945-08-23 21:00:00 TS 26.0572 137.228 main 817 783 P________PPP__ WP131945 26.0699 137.230 50 0 26.0699 137.230 TC 50 26.0190 137.221 2 50 26.0699 137.230 50 981 120 8 13
1945234N22131 1945 49 WP MM RUTH 1945-08-24 00:00:00 TS 26.5000 137.300 main 783 730 O________OOO__ jtwc_wp WP131945 26.5000 137.300 50 0 26.5000 137.300 TC 50 26.5000 137.300 2 50 26.5000 137.300 50 980 120 10 8
1945234N22131 1945 49 WP MM RUTH 1945-08-24 03:00:00 TS 27.0679 137.379 main 719 654 P________PPP__ WP131945 27.0625 137.394 50 0 27.0625 137.394 TC 50 27.0843 137.334 2 50 27.0625 137.394 50 979 120 12 3
1945234N22131 1945 49 WP MM RUTH 1945-08-24 06:00:00 TS 27.7068 137.373 main 654 584 O________OPO__ jtwc_wp WP131945 27.7000 137.400 50 0 27.7000 137.400 TC 50 27.7270 137.292 2 50 27.7000 137.400 50 979 120 13 354
1945234N22131 1945 49 WP MM RUTH 1945-08-24 09:00:00 TS 28.3691 137.229 main 573 503 P________PPP__ WP131945 28.3650 137.245 50 0 28.3650 137.245 TC 50 28.3812 137.180 2 50 28.3650 137.245 50 978 120 13 346
1945234N22131 1945 49 WP MM RUTH 1945-08-24 12:00:00 TS 29.0000 137.000 main 503 445 O________OOO__ jtwc_wp WP131945 29.0000 137.000 50 0 29.0000 137.000 TC 50 29.0000 137.000 2 50 29.0000 137.000 50 978 120 12 341
1945234N22131 1945 49 WP MM RUTH 1945-08-24 15:00:00 TS 29.5250 136.771 main 445 384 P________PPP__ WP131945 29.5299 136.772 55 0 29.5299 136.772 TC 55 29.5102 136.769 2 55 29.5299 136.772 55 978 180 11 336
1945234N22131 1945 49 WP MM RUTH 1945-08-24 18:00:00 TS 29.9951 136.494 main 384 336 O________OPO__ jtwc_wp WP131945 30.0000 136.500 60 0 30.0000 136.500 TC 60 29.9802 136.475 2 60 30.0000 136.500 60 978 240 11 330
1945234N22131 1945 49 WP MM RUTH 1945-08-24 21:00:00 TS 30.4407 136.159 main 336 278 P________PPP__ WP131945 30.4425 136.165 65 1 30.4425 136.165 TC 65 30.4351 136.143 2 65 30.4425 136.165 65 978 210 11 327
1945234N22131 1945 49 WP MM RUTH 1945-08-25 00:00:00 TS 30.9000 135.800 main 278 224 O________OOO__ jtwc_wp WP131945 30.9000 135.800 70 1 30.9000 135.800 TC 70 30.9000 135.800 3 70 30.9000 135.800 70 978 180 12 329
1945234N22131 1945 49 WP MM RUTH 1945-08-25 03:00:00 TS 31.4355 135.452 main 224 158 P________PPP__ WP131945 31.4425 135.442 70 1 31.4425 135.442 TC 70 31.4145 135.482 3 67 31.4425 135.442 70 979 180 12 332
1945234N22131 1945 49 WP MM RUTH 1945-08-25 06:00:00 TS 31.9856 135.114 main 158 96 O________OPO__ jtwc_wp WP131945 32.0000 135.100 70 1 32.0000 135.100 TC 70 31.9423 135.157 3 65 32.0000 135.100 70 980 180 12 333
1945234N22131 1945 49 WP MM RUTH 1945-08-25 09:00:00 TS 32.4990 134.807 main 96 35 P________PPP__ WP131945 32.5073 134.799 65 1 32.5073 134.799 TC 65 32.4739 134.828 3 62 32.5073 134.799 65 981 210 11 333
1945234N22131 1945 49 WP MM RUTH 1945-08-25 12:00:00 TS 33.0000 134.500 main 35 0 O________OOO__ jtwc_wp WP131945 33.0000 134.500 60 0 33.0000 134.500 TC 60 33.0000 134.500 2 60 33.0000 134.500 60 983 240 11 331
1945234N22131 1945 49 WP MM RUTH 1945-08-25 15:00:00 TS 33.4998 134.150 main 0 0 P________PPP__ WP131945 33.5000 134.150 57 0 33.5000 134.150 TC 57 33.4992 134.150 2 57 33.5000 134.150 57 984 210 12 330
1945234N22131 1945 49 WP MM RUTH 1945-08-25 18:00:00 TS 33.9982 133.801 main 0 0 O________OPO__ jtwc_wp WP131945 34.0000 133.800 55 0 34.0000 133.800 TC 55 33.9927 133.805 2 55 34.0000 133.800 55 986 180 11 331
1945234N22131 1945 49 WP MM RUTH 1945-08-25 21:00:00 TS 34.4918 133.478 main 0 0 P________PPP__ WP131945 34.4925 133.477 52 0 34.4925 133.477 TC 52 34.4899 133.482 2 52 34.4925 133.477 52 988 180 11 334
1945234N22131 1945 49 WP MM RUTH 1945-08-26 00:00:00 TS 35.0000 133.200 main 0 0 O________OOO__ jtwc_wp WP131945 35.0000 133.200 50 0 35.0000 133.200 TC 50 35.0000 133.200 2 50 35.0000 133.200 50 990 180 11 338
1945234N22131 1945 49 WP MM RUTH 1945-08-26 03:00:00 TS 35.5376 132.972 main 0 0 P________PPP__ WP131945 35.5424 132.977 45 0 35.5424 132.977 TC 45 35.5231 132.957 2 47 35.5424 132.977 45 991 180 11 343
1945234N22131 1945 49 WP MM RUTH 1945-08-26 06:00:00 TS 36.0905 132.790 main 67 67 O________OPO__ jtwc_wp WP131945 36.1000 132.800 40 0 36.1000 132.800 TC 40 36.0622 132.759 2 45 36.1000 132.800 40 992 180 11 346
1945234N22131 1945 49 WP MM RUTH 1945-08-26 09:00:00 TS 36.6313 132.628 main 125 125 P________PPP__ WP131945 36.6350 132.635 40 0 36.6350 132.635 TC 40 36.6201 132.607 2 42 36.6350 132.635 40 992 150 11 348
1945234N22131 1945 49 WP MM RUTH 1945-08-26 12:00:00 TS 37.2000 132.500 main 192 192 O________OOO__ jtwc_wp WP131945 37.2000 132.500 40 0 37.2000 132.500 TC 40 37.2000 132.500 2 40 37.2000 132.500 40 993 120 12 350
1945234N22131 1945 49 WP MM RUTH 1945-08-26 15:00:00 TS 37.8286 132.372 main 260 260 P________PPP__ WP131945 37.8425 132.370 40 0 37.8425 132.370 TC 40 37.7868 132.377 2 40 37.8425 132.370 40 994 120 13 353
1945234N22131 1945 49 WP MM RUTH 1945-08-26 18:00:00 TS 38.4742 132.301 main 292 292 O________OPO__ jtwc_wp WP131945 38.5000 132.300 40 0 38.5000 132.300 TC 40 38.3969 132.304 2 40 38.5000 132.300 40 995 120 12 357
1945234N22131 1945 49 WP MM RUTH 1945-08-26 21:00:00 TS 39.0720 132.299 main 290 259 P________PPP__ WP131945 39.0849 132.298 40 0 39.0849 132.298 TC 40 39.0335 132.304 2 40 39.0849 132.298 40 995 120 12 4
1945234N22131 1945 49 WP MM RUTH 1945-08-27 00:00:00 TS 39.7000 132.400 main 259 242 O________OOO__ jtwc_wp WP131945 39.7000 132.400 40 0 39.7000 132.400 TC 40 39.7000 132.400 2 40 39.7000 132.400 40 995 120 14 9
1945234N22131 1945 49 WP MM RUTH 1945-08-27 03:00:00 TS 40.4302 132.594 main 248 177 P________PPP__ WP131945 40.4349 132.598 37 0 40.4349 132.598 TC 37 40.4161 132.583 2 38 40.4349 132.598 37 995 120 15 14
1945234N22131 1945 49 WP MM RUTH 1945-08-27 06:00:00 TS 41.1892 132.892 main 166 90 O________OPO__ jtwc_wp WP131945 41.2000 132.900 35 0 41.2000 132.900 TC 35 41.1567 132.869 2 37 41.2000 132.900 35 996 120 16 18
1945234N22131 1945 49 WP MM RUTH 1945-08-27 09:00:00 TS 41.9152 133.253 main 92 22 P________PPP__ WP131945 41.9223 133.256 35 0 41.9223 133.256 TC 35 41.8939 133.247 2 36 41.9223 133.256 35 996 90 15 23
1945234N22131 1945 49 WP MM RUTH 1945-08-27 12:00:00 TS 42.6000 133.700 main 22 0 O________OOO__ jtwc_wp WP131945 42.6000 133.700 35 0 42.6000 133.700 TC 35 42.6000 133.700 2 35 42.6000 133.700 35 997 60 15 28
1945234N22131 1945 49 WP MM RUTH 1945-08-27 15:00:00 TS 43.2247 134.219 main 0 0 P________PPP__ WP131945 43.2149 134.221 35 0 43.2149 134.221 TC 35 43.2540 134.214 2 35 43.2149 134.221 35 997 60 15 33
1945234N22131 1945 49 WP MM RUTH 1945-08-27 18:00:00 TS 43.8157 134.794 main 0 0 O________OPO__ jtwc_wp WP131945 43.8000 134.800 35 0 43.8000 134.800 TC 35 43.8629 134.777 2 35 43.8000 134.800 35 997 60 15 36
1945234N22131 1945 49 WP MM RUTH 1945-08-27 21:00:00 TS 44.4067 135.390 main 0 0 P________PPP__ WP131945 44.3956 135.395 35 0 44.3956 135.395 TC 35 44.4402 135.376 2 35 44.3956 135.395 35 997 60 15 36
1945234N22131 1945 49 WP MM RUTH 1945-08-28 00:00:00 TS 45.0000 136.000 main 0 O________OOO__ jtwc_wp WP131945 45.0000 136.000 35 0 45.0000 136.000 TC 35 45.0000 136.000 2 35 45.0000 136.000 35 998 60 15 36

デジタル台風データ・検索

IBTrACS Databaseについて

本データベースは、米国NOAAが公開する1842年以降の世界の熱帯低気圧のベストトラックデータアーカイブInternational Best Track Archive for Climate Stewardship (IBTrACS)を、ウェブで閲覧しやすい形式に変換したものです。

最終更新日:2021-12-08